createdAt,value
2019-01-21T00:01:22.039Z,84.80
2019-01-21T00:06:22.009Z,85.20
2019-01-21T00:11:21.923Z,85.10
2019-01-21T00:16:21.581Z,84.90
2019-01-21T00:21:21.247Z,84.90
2019-01-21T00:26:21.051Z,85.30
2019-01-21T00:31:20.696Z,83.90
2019-01-21T00:36:20.418Z,84.90
2019-01-21T00:41:20.054Z,85.00
2019-01-21T00:46:19.723Z,84.10
2019-01-21T00:51:19.376Z,84.50
2019-01-21T00:56:19.042Z,84.90
2019-01-21T01:01:18.780Z,82.90
2019-01-21T01:06:18.439Z,83.70
2019-01-21T01:11:18.062Z,83.60
2019-01-21T01:16:17.865Z,84.40
2019-01-21T01:21:17.592Z,84.10
2019-01-21T01:26:17.307Z,84.10
2019-01-21T01:31:17.139Z,84.40
2019-01-21T01:36:17.039Z,84.50
2019-01-21T01:41:16.792Z,84.30
2019-01-21T01:46:16.451Z,83.60
2019-01-21T01:51:16.411Z,84.10
2019-01-21T01:56:16.043Z,83.60
2019-01-21T02:01:15.792Z,82.90
2019-01-21T02:06:16.847Z,83.60
2019-01-21T02:11:16.481Z,83.30
2019-01-21T02:16:16.131Z,82.20
2019-01-21T02:21:15.770Z,83.70
2019-01-21T02:26:20.974Z,84.10
2019-01-21T02:31:48.930Z,83.90
2019-01-21T02:37:12.273Z,83.90
2019-01-21T02:42:26.615Z,83.40
2019-01-21T02:47:37.679Z,82.90
2019-01-21T02:52:59.176Z,83.10
2019-01-21T02:58:27.790Z,83.10
2019-01-21T03:03:58.119Z,83.40
2019-01-21T03:09:30.552Z,83.90
2019-01-21T03:15:16.983Z,83.20
2019-01-21T03:20:35.880Z,83.60
2019-01-21T03:26:22.372Z,83.50
2019-01-21T03:32:17.996Z,83.30
2019-01-21T03:38:04.808Z,83.10
2019-01-21T03:43:18.807Z,83.40
2019-01-21T03:48:42.427Z,83.50
2019-01-21T03:54:03.491Z,83.40
2019-01-21T03:59:25.456Z,82.80
2019-01-21T04:04:50.175Z,82.30
2019-01-21T04:10:25.819Z,81.90
2019-01-21T04:15:47.799Z,81.40
2019-01-21T04:21:12.497Z,82.00
2019-01-21T04:26:21.740Z,77.70
2019-01-21T04:31:58.302Z,80.30
2019-01-21T04:37:48.775Z,77.90
2019-01-21T04:43:19.139Z,77.40
2019-01-21T04:49:03.578Z,81.10
2019-01-21T04:54:46.186Z,81.90
2019-01-21T05:00:31.799Z,81.60
2019-01-21T05:05:46.646Z,81.30
2019-01-21T05:11:09.795Z,80.40
2019-01-21T05:16:24.828Z,80.60
2019-01-21T05:22:07.077Z,80.40
2019-01-21T05:27:42.448Z,80.90
2019-01-21T05:33:31.115Z,80.40
2019-01-21T05:38:54.124Z,80.40
2019-01-21T05:44:12.170Z,80.00
2019-01-21T05:50:02.304Z,80.20
2019-01-21T05:55:12.967Z,79.70
2019-01-21T06:00:41.859Z,80.40
2019-01-21T06:06:26.275Z,80.10
2019-01-21T06:12:00.588Z,80.30
2019-01-21T06:17:41.487Z,80.80
2019-01-21T06:23:15.388Z,80.00
2019-01-21T06:28:48.933Z,80.10
2019-01-21T06:34:19.814Z,80.40
2019-01-21T06:40:05.439Z,80.60
2019-01-21T06:45:30.230Z,80.40
2019-01-21T06:51:08.116Z,80.00
2019-01-21T06:56:48.970Z,80.00
2019-01-21T07:02:45.706Z,80.10
2019-01-21T07:08:20.927Z,80.10
2019-01-21T07:13:57.471Z,80.30
2019-01-21T07:19:18.347Z,79.70
2019-01-21T07:24:58.223Z,79.80
2019-01-21T07:30:14.947Z,79.80
2019-01-21T07:36:11.179Z,80.10
2019-01-21T07:41:37.866Z,80.00
2019-01-21T07:47:24.538Z,80.00
2019-01-21T07:53:02.691Z,80.00
2019-01-21T07:58:58.399Z,80.20
2019-01-21T08:04:50.070Z,80.70
2019-01-21T08:10:29.892Z,79.90
2019-01-21T08:15:49.503Z,80.70
2019-01-21T08:21:15.163Z,80.70
2019-01-21T08:26:46.479Z,80.50
2019-01-21T08:32:22.716Z,80.70
2019-01-21T08:37:48.219Z,80.50
2019-01-21T08:43:22.949Z,80.90
2019-01-21T08:48:46.730Z,81.00
2019-01-21T08:54:24.866Z,81.30
2019-01-21T08:59:40.428Z,80.40
2019-01-21T09:05:12.037Z,81.60
2019-01-21T09:10:43.339Z,81.90
2019-01-21T09:16:39.082Z,81.90
2019-01-21T09:22:05.178Z,81.50
2019-01-21T09:27:35.598Z,81.40
2019-01-21T09:33:06.317Z,81.40
2019-01-21T09:38:39.174Z,81.60
2019-01-21T09:44:14.252Z,81.90
2019-01-21T09:49:12.859Z,81.90
2019-01-21T09:54:12.904Z,82.20
2019-01-21T09:59:12.881Z,82.10
2019-01-21T10:04:18.034Z,82.50
2019-01-21T10:09:45.391Z,82.30
2019-01-21T10:15:12.979Z,82.50
2019-01-21T10:20:52.499Z,82.10
2019-01-21T10:26:06.442Z,82.50
2019-01-21T10:31:59.225Z,82.00
2019-01-21T10:37:51.098Z,82.40
2019-01-21T10:43:41.538Z,82.40
2019-01-21T10:49:01.471Z,82.50
2019-01-21T10:54:37.232Z,82.50
2019-01-21T11:00:18.803Z,82.00
2019-01-21T11:05:46.321Z,82.30
2019-01-21T11:11:07.459Z,82.50
2019-01-21T11:16:12.743Z,82.30
2019-01-21T11:21:41.320Z,82.40
2019-01-21T11:27:37.479Z,82.50
2019-01-21T11:33:18.539Z,82.20
2019-01-21T11:38:55.056Z,82.30
2019-01-21T11:44:31.115Z,82.50
2019-01-21T11:49:56.091Z,82.30
2019-01-21T11:55:44.879Z,81.90
2019-01-21T12:00:54.664Z,81.80
2019-01-21T12:06:01.860Z,82.20
2019-01-21T12:11:34.774Z,82.30
2019-01-21T12:17:11.507Z,82.30
2019-01-21T12:22:30.443Z,82.40
2019-01-21T12:28:21.427Z,83.20
2019-01-21T12:33:57.519Z,83.60
2019-01-21T12:39:41.716Z,83.60
2019-01-21T12:44:55.915Z,83.20
2019-01-21T12:50:39.295Z,83.10
2019-01-21T12:55:53.224Z,82.70
2019-01-21T13:01:22.403Z,83.00
2019-01-21T13:06:50.735Z,83.30
2019-01-21T13:12:00.656Z,82.50
2019-01-21T13:17:31.304Z,82.90
2019-01-21T13:22:57.068Z,82.90
2019-01-21T13:28:14.895Z,82.40
2019-01-21T13:33:44.143Z,82.10
2019-01-21T13:39:17.498Z,82.10
2019-01-21T13:44:43.686Z,81.70
2019-01-21T13:50:23.667Z,82.40
2019-01-21T13:55:56.072Z,81.50
2019-01-21T14:01:21.208Z,80.70
2019-01-21T14:06:55.824Z,81.60
2019-01-21T14:12:08.855Z,81.10
2019-01-21T14:17:53.371Z,81.20
2019-01-21T14:23:06.643Z,81.50
2019-01-21T14:28:33.883Z,81.30
2019-01-21T14:33:42.703Z,81.50
2019-01-21T14:39:07.838Z,81.30
2019-01-21T14:44:41.631Z,81.40
2019-01-21T14:49:58.499Z,81.50
2019-01-21T14:55:34.269Z,81.30
2019-01-21T15:01:17.459Z,81.80
2019-01-21T15:06:52.464Z,81.60
2019-01-21T15:12:11.959Z,81.30
2019-01-21T15:18:13.806Z,81.70
2019-01-21T15:23:35.753Z,81.40
2019-01-21T15:29:13.201Z,81.80
2019-01-21T15:34:35.107Z,82.10
2019-01-21T15:40:03.424Z,82.10
2019-01-21T15:45:37.888Z,81.80
2019-01-21T15:51:17.146Z,81.60
2019-01-21T15:56:29.407Z,81.40
2019-01-21T16:01:55.362Z,81.90
2019-01-21T16:07:24.495Z,82.70
2019-01-21T16:12:44.470Z,82.20
2019-01-21T16:18:13.857Z,82.40
2019-01-21T16:23:49.094Z,82.70
2019-01-21T16:29:26.143Z,82.40
2019-01-21T16:34:57.624Z,82.40
2019-01-21T16:40:15.979Z,82.30
2019-01-21T16:45:15.968Z,82.00
2019-01-21T16:50:15.906Z,82.20
2019-01-21T16:55:15.642Z,82.20
2019-01-21T17:00:15.879Z,82.30
2019-01-21T17:05:15.743Z,81.10
2019-01-21T17:10:15.487Z,81.10
2019-01-21T17:15:15.431Z,82.20
2019-01-21T17:20:17.970Z,82.60
2019-01-21T17:25:17.911Z,82.30
2019-01-21T17:30:17.691Z,81.90
2019-01-21T17:35:17.434Z,82.40
2019-01-21T17:40:18.494Z,82.00
2019-01-21T17:45:19.171Z,82.40
2019-01-21T17:50:19.094Z,82.00
2019-01-21T17:55:19.035Z,82.50
2019-01-21T18:00:21.808Z,81.80
2019-01-21T18:05:21.715Z,81.70
2019-01-21T18:10:21.807Z,82.10
2019-01-21T18:15:21.483Z,82.20
2019-01-21T18:20:23.454Z,82.10
2019-01-21T18:25:23.331Z,77.90
2019-01-21T18:30:25.563Z,80.70
2019-01-21T18:35:25.266Z,81.40
2019-01-21T18:40:25.370Z,81.20
2019-01-21T18:45:26.829Z,81.60
2019-01-21T18:50:26.627Z,78.60
2019-01-21T18:55:26.383Z,80.60
2019-01-21T19:00:26.587Z,81.60
2019-01-21T19:05:26.315Z,81.10
2019-01-21T19:10:26.471Z,82.00
2019-01-21T19:15:28.875Z,82.40
2019-01-21T19:20:28.647Z,82.40
2019-01-21T19:25:29.380Z,81.70
2019-01-21T19:30:29.319Z,81.60
2019-01-21T19:35:31.537Z,81.40
2019-01-21T19:40:32.208Z,81.90
2019-01-21T19:45:31.920Z,82.10
2019-01-21T19:50:31.927Z,82.20
2019-01-21T19:55:37.462Z,82.40
2019-01-21T20:00:37.208Z,82.70
2019-01-21T20:05:37.018Z,82.60
2019-01-21T20:10:36.742Z,83.30
2019-01-21T20:15:36.495Z,82.40
2019-01-21T20:20:38.568Z,82.40
2019-01-21T20:25:38.219Z,83.10
2019-01-21T20:30:37.967Z,83.30
2019-01-21T20:35:38.035Z,83.20
2019-01-21T20:40:38.368Z,83.50
2019-01-21T20:45:38.035Z,83.50
2019-01-21T20:50:37.863Z,83.50
2019-01-21T20:55:37.603Z,83.40
2019-01-21T21:00:37.591Z,83.60
2019-01-21T21:05:37.555Z,83.60
2019-01-21T21:10:37.766Z,83.30
2019-01-21T21:15:37.804Z,83.60
2019-01-21T21:20:37.882Z,83.90
2019-01-21T21:25:38.383Z,83.30
2019-01-21T21:30:38.747Z,83.20
2019-01-21T21:35:39.398Z,83.50
2019-01-21T21:40:39.446Z,83.30
2019-01-21T21:45:39.555Z,83.60
2019-01-21T21:50:39.635Z,83.90
2019-01-21T21:55:39.625Z,84.00
2019-01-21T22:00:39.775Z,83.80
2019-01-21T22:05:39.894Z,83.50
2019-01-21T22:10:39.897Z,83.70
2019-01-21T22:15:40.039Z,84.20
2019-01-21T22:20:40.023Z,84.00
2019-01-21T22:25:40.074Z,83.60
2019-01-21T22:30:39.827Z,83.30
2019-01-21T22:35:39.487Z,84.10
2019-01-21T22:40:39.161Z,84.30
2019-01-21T22:45:39.935Z,83.50
2019-01-21T22:50:39.595Z,83.80
2019-01-21T22:55:39.640Z,83.80
2019-01-21T23:01:04.141Z,84.10
2019-01-21T23:06:03.978Z,83.90
2019-01-21T23:11:03.724Z,83.70
2019-01-21T23:16:03.480Z,82.90
2019-01-21T23:21:03.607Z,82.70
2019-01-21T23:26:03.238Z,82.90
2019-01-21T23:31:02.884Z,83.00
2019-01-21T23:36:02.543Z,82.60
2019-01-21T23:41:02.268Z,83.10
2019-01-21T23:46:01.936Z,82.40
2019-01-21T23:51:02.643Z,82.30
2019-01-21T23:56:02.296Z,82.70
